Česky Dansk Deutsch English Español Suomi Français Magyar Italiano Nederlands norsk Polski Português svenska Türkçe

 

Het Weer

Ubon Ratchathani (Thailand)

15:00, 17 juli 2016 (GMT)

NWNNE
WE
SWSSE
Home            
Ubon Ratchathani Pakse Mukdahan Savannakhet Roi Et Saravane Attopeu Sakon Nakhon Siemreap Thakhek Nakhon Phanom Khon Kaen Nakhon Ratchasima Chaiyaphum Udon Thani Hue Pleiku City Da Nang Kompong-Cham Nong Khai Vientiane Vinh Prachin Buri

Om een weerknop op uw website of weblog te plaatsen, copieer onderstaande code en plak die in uw pagina. In het eerste vakje staat HTML-code, in het tweede vakje UBB-code.


Add to Google

Details

Visibility: 9000 m, 9.0 km, 29528 ft, 5.6 miles
Clouds:Ein wenig bewölkt at 2500 ft, 762 m
Temperature:29°C, 84°F
Gefühlte Temperatur:35°C, 95°F
Dew-point:26°C, 79°F
Atmospheric pressure:1009 hPa, 756.7 mmHg, 29.79 inHg, 0.996 atm
Relative humidity:83.9 %
METAR:VTUU 171500Z 00000KT 9000 FEW025 29/26 Q1008 A2979 NOSIG

Snelkoppelingen

Actuele weersinformatie van de hele wereld. Voeg locaties toe met het plus (+) symbool. Deze snelkoppelingen kunnen worden toegevoegd aan Google.

Lid van de Technetium groep

website free tracking
StatCounter NetStat W3C Validator

08-08-2020 04:30:13
astro.technetium.be money.technetium.be phote.technetium.be tafeltennistafel.technetium.be www.ligfiets.net